Time;durP1;ratioP1;P1;durP2;ratioP2;P2;SDS_P1;SDS_P2;PMS_P1;PMS_P2;Temp;Humidity;BMP_temperature;BMP_pressure;BME280_temperature;BME280_humidity;BME280_pressure;Samples;Min_cycle;Max_cycle;Signal;HPM_P1;HPM_P2
2023/11/17 00:01:05;;;;;;;9.38;6.00;;;;;;;;;;5049579;28;20041;-68
2023/11/17 00:03:32;;;;;;;10.98;5.93;;;;;;;;;;5061749;28;20075;-68
2023/11/17 00:05:59;;;;;;;10.20;6.30;;;;;;;;;;5057690;28;20049;-69
2023/11/17 00:08:28;;;;;;;12.05;6.43;;;;;;;;;;5039356;28;20054;-69
2023/11/17 00:10:55;;;;;;;8.70;6.20;;;;;;;;;;5055415;28;20060;-69
2023/11/17 00:13:22;;;;;;;11.23;7.57;;;;;;;;;;5061033;28;20139;-68
2023/11/17 00:15:49;;;;;;;14.88;7.72;;;;;;;;;;5060889;28;20060;-69
2023/11/17 00:18:15;;;;;;;13.10;7.60;;;;;;;;;;5034074;28;20052;-69
2023/11/17 00:20:42;;;;;;;13.63;7.20;;;;;;;;;;5064179;28;20040;-69
2023/11/17 00:23:08;;;;;;;12.20;7.53;;;;;;;;;;5060209;28;20714;-68
2023/11/17 00:25:34;;;;;;;11.32;6.75;;;;;;;;;;5063345;28;20068;-68
2023/11/17 00:28:01;;;;;;;12.00;7.60;;;;;;;;;;5046061;28;20049;-68
2023/11/17 00:30:27;;;;;;;13.60;7.00;;;;;;;;;;5051868;28;20049;-69
2023/11/17 00:32:53;;;;;;;16.00;8.07;;;;;;;;;;5048507;28;20082;-68
2023/11/17 00:35:20;;;;;;;14.05;6.47;;;;;;;;;;5054994;28;20049;-68
2023/11/17 00:37:46;;;;;;;12.48;7.63;;;;;;;;;;5039016;28;20060;-68
2023/11/17 00:40:14;;;;;;;13.30;6.82;;;;;;;;;;5057212;28;20072;-68
2023/11/17 00:42:40;;;;;;;12.57;6.88;;;;;;;;;;5060141;28;20393;-69
2023/11/17 00:45:07;;;;;;;11.23;7.32;;;;;;;;;;5041358;28;20661;-68
2023/11/17 00:47:34;;;;;;;10.93;6.65;;;;;;;;;;5051402;28;20141;-69
2023/11/17 00:50:01;;;;;;;12.98;6.95;;;;;;;;;;5052331;28;20100;-67
2023/11/17 00:52:27;;;;;;;11.68;7.22;;;;;;;;;;5049931;28;20136;-68
2023/11/17 00:54:55;;;;;;;12.85;7.22;;;;;;;;;;5060086;28;20051;-68
2023/11/17 00:57:22;;;;;;;12.27;6.55;;;;;;;;;;5053060;28;20057;-68
2023/11/17 00:59:48;;;;;;;9.60;7.38;;;;;;;;;;5054274;28;20155;-68
2023/11/17 01:02:15;;;;;;;9.95;6.78;;;;;;;;;;5064556;28;20083;-69
2023/11/17 01:04:42;;;;;;;11.57;6.90;;;;;;;;;;5058476;28;20063;-67
2023/11/17 01:07:08;;;;;;;10.52;7.57;;;;;;;;;;5040329;28;20266;-68
2023/11/17 01:09:34;;;;;;;12.15;8.00;;;;;;;;;;5053533;28;20186;-69
2023/11/17 01:12:01;;;;;;;12.80;9.27;;;;;;;;;;5051426;28;20076;-68
2023/11/17 01:14:27;;;;;;;14.80;9.32;;;;;;;;;;5054335;28;20140;-68
2023/11/17 01:16:53;;;;;;;13.40;9.00;;;;;;;;;;5052809;28;20658;-68
2023/11/17 01:19:20;;;;;;;14.05;7.80;;;;;;;;;;5060292;28;20080;-68
2023/11/17 01:21:46;;;;;;;12.73;7.35;;;;;;;;;;5047902;28;20461;-68
2023/11/17 01:24:13;;;;;;;11.95;7.13;;;;;;;;;;5050583;28;20149;-68
2023/11/17 01:26:40;;;;;;;11.25;7.28;;;;;;;;;;5052550;28;20079;-68
2023/11/17 01:29:06;;;;;;;9.13;6.25;;;;;;;;;;5063546;28;20539;-68
2023/11/17 01:31:32;;;;;;;9.05;6.70;;;;;;;;;;5057963;28;20596;-68
2023/11/17 01:33:59;;;;;;;10.20;7.30;;;;;;;;;;5057708;28;20482;-68
2023/11/17 01:36:26;;;;;;;9.18;6.53;;;;;;;;;;5053245;28;20049;-67
2023/11/17 01:38:52;;;;;;;11.90;6.10;;;;;;;;;;5036263;28;20106;-68
2023/11/17 01:41:20;;;;;;;8.23;6.25;;;;;;;;;;5045104;28;20056;-69
2023/11/17 01:43:47;;;;;;;10.55;6.55;;;;;;;;;;5084896;28;20059;-68
2023/11/17 01:46:14;;;;;;;8.48;6.75;;;;;;;;;;5045255;28;20053;-68
2023/11/17 01:48:41;;;;;;;10.73;6.15;;;;;;;;;;5058498;28;20053;-68
2023/11/17 01:51:07;;;;;;;9.63;6.50;;;;;;;;;;5051486;28;20056;-69
2023/11/17 01:53:34;;;;;;;12.52;6.88;;;;;;;;;;5060186;28;20049;-68
2023/11/17 01:56:00;;;;;;;10.05;7.20;;;;;;;;;;5047353;28;20076;-68
2023/11/17 01:58:27;;;;;;;13.65;7.20;;;;;;;;;;5066511;28;20078;-68
2023/11/17 02:00:53;;;;;;;10.20;7.30;;;;;;;;;;5065786;28;20109;-69
2023/11/17 02:03:20;;;;;;;10.93;6.78;;;;;;;;;;5060894;28;20091;-69
2023/11/17 02:05:49;;;;;;;8.45;6.38;;;;;;;;;;5058618;28;20055;-69
2023/11/17 02:08:15;;;;;;;;;;;;;;;;;;5044926;28;20047;-69
2023/11/17 02:10:56;;;;;;;8.18;6.32;;;;;;;;;;5075147;28;19924;-69
2023/11/17 02:13:25;;;;;;;10.63;7.40;;;;;;;;;;5055702;28;20100;-69
2023/11/17 02:15:52;;;;;;;;;;;;;;;;;;5051649;28;20420;-69
2023/11/17 02:18:22;;;;;;;10.02;7.00;;;;;;;;;;5057956;28;19924;-70
2023/11/17 02:20:52;;;;;;;12.02;7.07;;;;;;;;;;5053912;28;20055;-69
2023/11/17 02:23:20;;;;;;;10.43;7.32;;;;;;;;;;5052666;28;20083;-69
2023/11/17 02:26:02;;;;;;;11.20;7.20;;;;;;;;;;5058003;28;20110;-69
2023/11/17 02:28:41;;;;;;;11.60;7.47;;;;;;;;;;5058515;28;20044;-69
2023/11/17 02:31:29;;;;;;;9.75;7.03;;;;;;;;;;5054747;28;20056;-69
2023/11/17 02:33:57;;;;;;;11.23;6.90;;;;;;;;;;5051727;28;20037;-69
2023/11/17 02:36:26;;;;;;;9.67;7.43;;;;;;;;;;5053025;28;20054;-69
2023/11/17 02:38:57;;;;;;;11.88;6.97;;;;;;;;;;5062092;28;20541;-69
2023/11/17 02:41:32;;;;;;;9.50;6.70;;;;;;;;;;5057127;28;20054;-69
2023/11/17 02:44:02;;;;;;;10.82;6.55;;;;;;;;;;5057075;28;20516;-69
2023/11/17 02:46:32;;;;;;;8.85;6.55;;;;;;;;;;5055866;28;20053;-69
2023/11/17 02:49:00;;;;;;;10.32;6.97;;;;;;;;;;5053717;28;20118;-69
2023/11/17 02:51:32;;;;;;;10.80;6.63;;;;;;;;;;5062015;28;20413;-69
2023/11/17 02:54:02;;;;;;;14.10;7.53;;;;;;;;;;5056447;28;20067;-69
2023/11/17 02:56:29;;;;;;;11.02;7.47;;;;;;;;;;5059608;28;20549;-69
2023/11/17 02:58:56;;;;;;;10.98;7.47;;;;;;;;;;5049802;28;20052;-69
2023/11/17 03:01:24;;;;;;;13.82;7.32;;;;;;;;;;5045899;28;20131;-69
2023/11/17 03:03:51;;;;;;;11.65;7.68;;;;;;;;;;5049499;28;20049;-69
2023/11/17 03:06:17;;;;;;;10.68;7.43;;;;;;;;;;5048320;28;20127;-69
2023/11/17 03:08:44;;;;;;;11.68;7.70;;;;;;;;;;5050383;28;20641;-69
2023/11/17 03:11:11;;;;;;;9.50;7.20;;;;;;;;;;5060124;28;20443;-70
2023/11/17 03:13:37;;;;;;;10.07;6.97;;;;;;;;;;5067554;28;20094;-69
2023/11/17 03:16:04;;;;;;;10.00;7.30;;;;;;;;;;5054466;28;20127;-69
2023/11/17 03:18:38;;;;;;;10.02;7.35;;;;;;;;;;5062230;28;20418;-69
2023/11/17 03:21:05;;;;;;;10.55;7.55;;;;;;;;;;5055365;28;20070;-69
2023/11/17 03:23:32;;;;;;;18.38;9.50;;;;;;;;;;5047702;28;20170;-68
2023/11/17 03:25:59;;;;;;;25.92;10.38;;;;;;;;;;5066158;28;20293;-69
2023/11/17 03:28:26;;;;;;;16.42;11.05;;;;;;;;;;5043788;28;20053;-69
2023/11/17 03:30:55;;;;;;;23.52;11.20;;;;;;;;;;5048913;28;20049;-69
2023/11/17 03:33:22;;;;;;;21.88;10.65;;;;;;;;;;5054098;28;20052;-69
2023/11/17 03:35:50;;;;;;;25.63;10.68;;;;;;;;;;5062456;28;20531;-69
2023/11/17 03:38:16;;;;;;;18.05;9.57;;;;;;;;;;5057789;28;20041;-69
2023/11/17 03:40:43;;;;;;;25.80;10.27;;;;;;;;;;5046335;28;20147;-69
2023/11/17 03:43:13;;;;;;;21.98;10.10;;;;;;;;;;5061776;28;20048;-69
2023/11/17 03:45:48;;;;;;;25.13;9.82;;;;;;;;;;5058967;28;20414;-69
2023/11/17 03:48:16;;;;;;;25.33;10.88;;;;;;;;;;5066595;28;20468;-69
2023/11/17 03:50:42;;;;;;;26.60;10.00;;;;;;;;;;5060056;28;20044;-69
2023/11/17 03:53:09;;;;;;;24.85;9.35;;;;;;;;;;5049862;28;20053;-69
2023/11/17 03:55:36;;;;;;;19.88;9.45;;;;;;;;;;5060996;28;20047;-70
2023/11/17 03:58:03;;;;;;;33.00;9.55;;;;;;;;;;5063263;28;20055;-69
2023/11/17 04:00:29;;;;;;;29.25;9.88;;;;;;;;;;5044769;28;20062;-69
2023/11/17 04:02:57;;;;;;;46.25;10.23;;;;;;;;;;5058792;28;20098;-69
2023/11/17 04:05:23;;;;;;;42.35;11.70;;;;;;;;;;5067839;28;20048;-69
2023/11/17 04:07:50;;;;;;;34.85;9.27;;;;;;;;;;5043748;28;20060;-69
2023/11/17 04:10:18;;;;;;;29.80;10.35;;;;;;;;;;5063523;28;20037;-69
2023/11/17 04:12:45;;;;;;;33.88;9.65;;;;;;;;;;5070157;28;20074;-69
2023/11/17 04:15:12;;;;;;;15.30;8.32;;;;;;;;;;5045451;28;20053;-69
2023/11/17 04:17:40;;;;;;;37.37;10.93;;;;;;;;;;5060434;28;20106;-69
2023/11/17 04:20:08;;;;;;;24.40;9.48;;;;;;;;;;5058778;28;20048;-69
2023/11/17 04:22:35;;;;;;;14.38;9.35;;;;;;;;;;5052541;28;20044;-69
2023/11/17 04:25:03;;;;;;;14.32;9.40;;;;;;;;;;5059482;28;20056;-69
2023/11/17 04:27:30;;;;;;;14.48;9.38;;;;;;;;;;5057005;28;20376;-69
2023/11/17 04:29:56;;;;;;;13.35;9.10;;;;;;;;;;5063917;28;20041;-69
2023/11/17 04:32:23;;;;;;;11.82;8.98;;;;;;;;;;5060494;28;20041;-69
2023/11/17 04:34:49;;;;;;;14.88;9.00;;;;;;;;;;5055901;28;20050;-69
2023/11/17 04:37:15;;;;;;;14.13;8.70;;;;;;;;;;5038615;28;20045;-69
2023/11/17 04:39:42;;;;;;;13.52;8.05;;;;;;;;;;5054928;28;20052;-69
2023/11/17 04:42:08;;;;;;;15.55;9.27;;;;;;;;;;5062602;28;20059;-69
2023/11/17 04:44:35;;;;;;;32.22;9.80;;;;;;;;;;5052776;28;20053;-69
2023/11/17 04:47:01;;;;;;;28.58;9.80;;;;;;;;;;5048691;28;20053;-69
2023/11/17 04:49:27;;;;;;;37.03;9.85;;;;;;;;;;5036191;28;20267;-69
2023/11/17 04:51:54;;;;;;;52.63;10.57;;;;;;;;;;5045766;28;20126;-69
2023/11/17 04:54:20;;;;;;;54.17;10.10;;;;;;;;;;5044540;28;20056;-69
2023/11/17 04:56:47;;;;;;;62.22;11.48;;;;;;;;;;5068143;28;20055;-69
2023/11/17 04:59:13;;;;;;;56.05;10.93;;;;;;;;;;5048075;28;20428;-69
2023/11/17 05:01:39;;;;;;;45.80;11.00;;;;;;;;;;5064479;28;20670;-69
2023/11/17 05:04:07;;;;;;;65.30;11.88;;;;;;;;;;5046854;28;20080;-69
2023/11/17 05:06:36;;;;;;;101.90;11.23;;;;;;;;;;5045877;28;20063;-69
2023/11/17 05:09:09;;;;;;;69.97;11.63;;;;;;;;;;5059129;28;20058;-69
2023/11/17 05:11:37;;;;;;;32.47;9.45;;;;;;;;;;5059501;28;20044;-69
2023/11/17 05:14:05;;;;;;;49.80;10.23;;;;;;;;;;5066887;28;20429;-69
2023/11/17 05:16:35;;;;;;;57.90;10.70;;;;;;;;;;5051224;28;20044;-69
2023/11/17 05:19:05;;;;;;;52.33;9.48;;;;;;;;;;5042305;28;20447;-69
2023/11/17 05:21:32;;;;;;;33.90;9.52;;;;;;;;;;5052710;28;20048;-69
2023/11/17 05:23:59;;;;;;;19.27;9.45;;;;;;;;;;5045650;28;20467;-69
2023/11/17 05:26:26;;;;;;;38.40;9.75;;;;;;;;;;5049686;28;20098;-69
2023/11/17 05:28:52;;;;;;;25.38;9.70;;;;;;;;;;5024334;28;20403;-69
2023/11/17 05:31:20;;;;;;;36.15;9.55;;;;;;;;;;5058673;28;20710;-69
2023/11/17 05:33:47;;;;;;;44.50;9.63;;;;;;;;;;5046958;28;20056;-69
2023/11/17 05:36:14;;;;;;;21.42;9.80;;;;;;;;;;5056686;28;20075;-69
2023/11/17 05:38:40;;;;;;;37.13;10.50;;;;;;;;;;5042081;28;20061;-69
2023/11/17 05:41:08;;;;;;;38.45;10.43;;;;;;;;;;5053354;28;20140;-69
2023/11/17 05:43:35;;;;;;;56.13;10.37;;;;;;;;;;5045969;28;20116;-69
2023/11/17 05:46:02;;;;;;;48.63;10.98;;;;;;;;;;5047621;28;20281;-69
2023/11/17 05:48:29;;;;;;;81.13;10.63;;;;;;;;;;5029205;28;20056;-69
2023/11/17 05:50:56;;;;;;;56.97;10.85;;;;;;;;;;5043537;28;20247;-69
2023/11/17 05:53:23;;;;;;;42.55;12.38;;;;;;;;;;5067569;28;20055;-69
2023/11/17 05:55:49;;;;;;;45.97;10.30;;;;;;;;;;5053930;28;20059;-69
2023/11/17 05:58:17;;;;;;;99.97;11.40;;;;;;;;;;5044743;28;20040;-69
2023/11/17 06:00:43;;;;;;;57.17;11.07;;;;;;;;;;5056300;28;20425;-69
2023/11/17 06:03:10;;;;;;;35.85;9.93;;;;;;;;;;5055204;28;20052;-69
2023/11/17 06:05:36;;;;;;;29.42;9.23;;;;;;;;;;5056302;28;20474;-69
2023/11/17 06:08:03;;;;;;;22.42;9.82;;;;;;;;;;5062385;28;20056;-70
2023/11/17 06:10:30;;;;;;;18.83;10.25;;;;;;;;;;5065501;28;20085;-69
2023/11/17 06:12:56;;;;;;;19.60;10.07;;;;;;;;;;5048805;28;20466;-69
2023/11/17 06:15:27;;;;;;;11.80;9.20;;;;;;;;;;5056505;28;20045;-69
2023/11/17 06:17:54;;;;;;;11.00;7.65;;;;;;;;;;5051969;28;20053;-69
2023/11/17 06:20:22;;;;;;;11.70;8.93;;;;;;;;;;5049799;28;20135;-69
2023/11/17 06:22:48;;;;;;;10.05;7.78;;;;;;;;;;5050678;28;20048;-69
2023/11/17 06:25:15;;;;;;;13.35;8.27;;;;;;;;;;5036724;28;20136;-69
2023/11/17 06:27:42;;;;;;;12.45;8.48;;;;;;;;;;5044591;28;20524;-70
2023/11/17 06:30:08;;;;;;;11.10;8.88;;;;;;;;;;5027741;28;20067;-70
2023/11/17 06:32:35;;;;;;;12.50;8.88;;;;;;;;;;5031682;28;20542;-69
2023/11/17 06:35:01;;;;;;;14.27;9.15;;;;;;;;;;5052259;28;20120;-69
2023/11/17 06:37:28;;;;;;;10.82;8.73;;;;;;;;;;5037947;28;20044;-69
2023/11/17 06:39:54;;;;;;;16.20;9.52;;;;;;;;;;5058878;28;20055;-69
2023/11/17 06:42:22;;;;;;;12.18;8.90;;;;;;;;;;5045264;28;20137;-69
2023/11/17 06:44:49;;;;;;;15.20;9.73;;;;;;;;;;5064726;28;20135;-69
2023/11/17 06:47:16;;;;;;;11.50;9.73;;;;;;;;;;5058557;28;20874;-70
2023/11/17 06:49:43;;;;;;;14.45;9.60;;;;;;;;;;5059371;28;20753;-70
2023/11/17 06:52:09;;;;;;;16.90;11.02;;;;;;;;;;5052503;28;20079;-70
2023/11/17 06:54:36;;;;;;;15.75;11.05;;;;;;;;;;5039243;28;20037;-69
2023/11/17 06:57:02;;;;;;;11.98;9.32;;;;;;;;;;5060581;28;20053;-69
2023/11/17 06:59:29;;;;;;;12.98;10.02;;;;;;;;;;5051771;28;20084;-69
2023/11/17 07:01:55;;;;;;;12.07;9.38;;;;;;;;;;5042813;28;20052;-70
2023/11/17 07:04:22;;;;;;;12.45;9.23;;;;;;;;;;5059740;28;20044;-69
2023/11/17 07:06:48;;;;;;;11.65;9.00;;;;;;;;;;5043831;28;20754;-69
2023/11/17 07:09:23;;;;;;;15.32;9.85;;;;;;;;;;5045156;28;20735;-70
2023/11/17 07:11:51;;;;;;;16.73;9.60;;;;;;;;;;5060147;28;20094;-70
2023/11/17 07:14:21;;;;;;;28.00;10.55;;;;;;;;;;5053648;28;20126;-70
2023/11/17 07:16:48;;;;;;;27.70;9.48;;;;;;;;;;5044333;28;20133;-70
2023/11/17 07:19:16;;;;;;;15.38;9.98;;;;;;;;;;5058642;28;20063;-69
2023/11/17 07:21:47;;;;;;;16.67;9.65;;;;;;;;;;5061112;28;20099;-70
2023/11/17 07:24:18;;;;;;;14.23;8.98;;;;;;;;;;5030061;28;20057;-70
2023/11/17 07:26:45;;;;;;;12.38;9.15;;;;;;;;;;5042377;28;20088;-70
2023/11/17 07:29:13;;;;;;;12.48;9.55;;;;;;;;;;5043976;28;20052;-69
2023/11/17 07:31:44;;;;;;;11.30;9.13;;;;;;;;;;5063205;28;20429;-70
2023/11/17 07:34:18;;;;;;;12.02;8.77;;;;;;;;;;5040333;28;20076;-70
2023/11/17 07:36:46;;;;;;;12.25;9.32;;;;;;;;;;5055266;28;20036;-70
2023/11/17 07:39:13;;;;;;;12.38;9.00;;;;;;;;;;5043419;28;20135;-70
2023/11/17 07:41:40;;;;;;;11.55;8.90;;;;;;;;;;5052683;28;20053;-70
2023/11/17 07:44:08;;;;;;;12.43;9.13;;;;;;;;;;5041909;28;20059;-70
2023/11/17 07:46:37;;;;;;;11.25;8.60;;;;;;;;;;5048359;28;20487;-69
2023/11/17 07:49:06;;;;;;;10.95;8.60;;;;;;;;;;5042824;28;20049;-69
2023/11/17 07:51:33;;;;;;;;;;;;;;;;;;5060614;28;20058;-69
2023/11/17 07:54:00;;;;;;;10.52;9.02;;;;;;;;;;5057388;28;20296;-69
2023/11/17 07:56:27;;;;;;;18.40;9.23;;;;;;;;;;5048430;28;20048;-70
2023/11/17 07:58:54;;;;;;;14.43;9.63;;;;;;;;;;5057933;28;20052;-70
2023/11/17 08:01:20;;;;;;;12.48;8.85;;;;;;;;;;5045472;28;20044;-70
2023/11/17 08:03:46;;;;;;;12.27;9.15;;;;;;;;;;5028212;28;20309;-70
2023/11/17 08:06:13;;;;;;;11.52;9.25;;;;;;;;;;5063759;28;20125;-69
2023/11/17 08:08:40;;;;;;;11.52;9.00;;;;;;;;;;5062239;28;20487;-70
2023/11/17 08:11:11;;;;;;;14.02;9.32;;;;;;;;;;5069212;28;20044;-69
2023/11/17 08:13:37;;;;;;;13.05;9.35;;;;;;;;;;5043358;28;20041;-70
2023/11/17 08:16:06;;;;;;;12.02;9.70;;;;;;;;;;5057098;28;20123;-69
2023/11/17 08:18:37;;;;;;;11.50;9.10;;;;;;;;;;5071838;28;20076;-69
2023/11/17 08:21:05;;;;;;;13.40;9.57;;;;;;;;;;5062006;28;20084;-69
2023/11/17 08:23:32;;;;;;;12.93;9.30;;;;;;;;;;5049857;28;20072;-69
2023/11/17 08:25:59;;;;;;;16.13;9.15;;;;;;;;;;5046144;28;20106;-70
2023/11/17 08:28:28;;;;;;;11.30;9.55;;;;;;;;;;5055773;28;20056;-69
2023/11/17 08:30:55;;;;;;;12.10;10.07;;;;;;;;;;5050761;28;20057;-70
2023/11/17 08:33:21;;;;;;;13.75;10.82;;;;;;;;;;5064328;28;20041;-70
2023/11/17 08:35:47;;;;;;;15.02;11.70;;;;;;;;;;5063859;28;20048;-70
2023/11/17 08:38:15;;;;;;;15.73;11.57;;;;;;;;;;5062608;28;20067;-70
2023/11/17 08:40:42;;;;;;;16.20;11.23;;;;;;;;;;5065440;28;20178;-70
2023/11/17 08:43:09;;;;;;;13.70;10.80;;;;;;;;;;5054309;28;20171;-70
2023/11/17 08:45:36;;;;;;;14.10;10.60;;;;;;;;;;5042386;28;20512;-70
2023/11/17 08:48:03;;;;;;;14.95;11.45;;;;;;;;;;5048702;28;20057;-70
2023/11/17 08:50:30;;;;;;;14.48;11.27;;;;;;;;;;5066356;28;20060;-70
2023/11/17 08:52:57;;;;;;;12.88;10.90;;;;;;;;;;5054051;28;20394;-70
2023/11/17 08:55:27;;;;;;;14.43;10.37;;;;;;;;;;5043006;28;20045;-70
2023/11/17 08:57:54;;;;;;;14.02;10.80;;;;;;;;;;5047755;28;20072;-70
2023/11/17 09:00:29;;;;;;;15.00;10.18;;;;;;;;;;5043308;28;20048;-70
2023/11/17 09:02:56;;;;;;;13.57;10.70;;;;;;;;;;5061046;28;20123;-70
2023/11/17 09:05:23;;;;;;;16.02;11.05;;;;;;;;;;5036991;28;20084;-70
2023/11/17 09:07:50;;;;;;;16.20;12.32;;;;;;;;;;5055819;28;20044;-70
2023/11/17 09:10:20;;;;;;;15.38;11.63;;;;;;;;;;5061080;28;20040;-70
2023/11/17 09:12:48;;;;;;;15.35;11.90;;;;;;;;;;5060874;28;20060;-70
2023/11/17 09:15:15;;;;;;;13.95;11.27;;;;;;;;;;5054151;28;20458;-70
2023/11/17 09:17:43;;;;;;;17.02;12.38;;;;;;;;;;5048285;28;20111;-70
2023/11/17 09:20:13;;;;;;;17.55;11.50;;;;;;;;;;5047877;28;20781;-70
2023/11/17 09:22:42;;;;;;;17.40;12.35;;;;;;;;;;5020101;28;20064;-70
2023/11/17 09:25:13;;;;;;;17.77;12.20;;;;;;;;;;5048240;28;20044;-70
2023/11/17 09:27:58;;;;;;;16.50;11.63;;;;;;;;;;5031611;28;20053;-70
2023/11/17 09:30:25;;;;;;;18.58;13.70;;;;;;;;;;5064956;28;20080;-70
2023/11/17 09:32:55;;;;;;;19.20;13.98;;;;;;;;;;5050597;28;20610;-70
2023/11/17 09:35:25;;;;;;;19.02;13.63;;;;;;;;;;5051270;28;20102;-70
2023/11/17 09:37:53;;;;;;;19.13;12.88;;;;;;;;;;5060622;28;20127;-70
2023/11/17 09:40:21;;;;;;;24.25;15.98;;;;;;;;;;5035826;28;20049;-70
2023/11/17 09:42:48;;;;;;;24.33;15.90;;;;;;;;;;5048228;28;20055;-69
2023/11/17 09:45:17;;;;;;;24.10;15.48;;;;;;;;;;5041890;28;20052;-70
2023/11/17 09:47:46;;;;;;;20.73;13.05;;;;;;;;;;5044035;28;20045;-70
2023/11/17 09:50:13;;;;;;;23.90;14.32;;;;;;;;;;5035567;28;20743;-70
2023/11/17 09:52:44;;;;;;;18.85;11.43;;;;;;;;;;5047136;28;20493;-70
2023/11/17 09:55:11;;;;;;;22.98;15.13;;;;;;;;;;5067495;28;20139;-70
2023/11/17 09:57:39;;;;;;;19.65;14.30;;;;;;;;;;5050746;28;20056;-70
2023/11/17 10:00:17;;;;;;;23.45;14.68;;;;;;;;;;5070052;28;20131;-69
2023/11/17 10:02:48;;;;;;;20.27;14.40;;;;;;;;;;5031554;28;20040;-70
2023/11/17 10:05:14;;;;;;;21.45;14.65;;;;;;;;;;5051492;28;20052;-70
2023/11/17 10:07:41;;;;;;;20.00;13.80;;;;;;;;;;5048225;28;20045;-70
2023/11/17 10:10:08;;;;;;;21.25;14.60;;;;;;;;;;5060176;28;20382;-70
2023/11/17 10:12:34;;;;;;;22.33;15.13;;;;;;;;;;5062713;28;20041;-70
2023/11/17 10:15:06;;;;;;;20.98;14.63;;;;;;;;;;5045837;28;20487;-70
2023/11/17 10:17:33;;;;;;;21.23;15.45;;;;;;;;;;5067071;28;20053;-70
2023/11/17 10:19:59;;;;;;;23.48;15.77;;;;;;;;;;5059224;28;20049;-70
2023/11/17 10:22:28;;;;;;;23.50;15.32;;;;;;;;;;5056908;28;20053;-70
2023/11/17 10:24:56;;;;;;;23.98;15.25;;;;;;;;;;5062528;28;20117;-70
2023/11/17 10:27:24;;;;;;;21.67;14.15;;;;;;;;;;5043316;28;20496;-70
2023/11/17 10:29:50;;;;;;;20.90;14.52;;;;;;;;;;5051450;28;20052;-70
2023/11/17 10:32:19;;;;;;;23.35;12.60;;;;;;;;;;5057970;28;20052;-70
2023/11/17 10:35:11;;;;;;;22.27;13.90;;;;;;;;;;5070836;28;20048;-70
2023/11/17 10:37:39;;;;;;;21.65;13.88;;;;;;;;;;5065003;28;20059;-70
2023/11/17 10:40:09;;;;;;;19.17;13.57;;;;;;;;;;5053634;28;20166;-70
2023/11/17 10:42:39;;;;;;;16.70;12.57;;;;;;;;;;5052185;28;20480;-70
2023/11/17 10:45:16;;;;;;;18.67;12.85;;;;;;;;;;5048047;28;20080;-70
2023/11/17 10:47:43;;;;;;;18.00;11.45;;;;;;;;;;5060816;28;20048;-70
2023/11/17 10:50:10;;;;;;;18.73;12.80;;;;;;;;;;5062733;28;20066;-70
2023/11/17 10:52:36;;;;;;;18.20;13.68;;;;;;;;;;5056447;28;20072;-69
2023/11/17 10:55:03;;;;;;;19.45;13.82;;;;;;;;;;5050791;28;20114;-69
2023/11/17 10:57:29;;;;;;;18.88;13.57;;;;;;;;;;5081578;28;20044;-70
2023/11/17 10:59:56;;;;;;;13.63;10.50;;;;;;;;;;5058413;28;20079;-69
2023/11/17 11:02:28;;;;;;;14.75;9.63;;;;;;;;;;5045367;28;20605;-69
2023/11/17 11:04:59;;;;;;;20.77;10.55;;;;;;;;;;5062044;28;20045;-69
2023/11/17 11:07:25;;;;;;;12.60;8.55;;;;;;;;;;5045372;28;20045;-69
2023/11/17 11:09:52;;;;;;;14.45;8.50;;;;;;;;;;5046647;28;20045;-69
2023/11/17 11:12:20;;;;;;;10.65;8.52;;;;;;;;;;5064149;28;20050;-69
2023/11/17 11:14:49;;;;;;;14.70;8.73;;;;;;;;;;5063886;28;20055;-69
2023/11/17 11:17:17;;;;;;;16.13;9.20;;;;;;;;;;5045023;28;20102;-69
2023/11/17 11:19:45;;;;;;;12.35;6.95;;;;;;;;;;5047451;28;20087;-69
2023/11/17 11:22:32;;;;;;;10.80;7.73;;;;;;;;;;5035967;28;20049;-69
2023/11/17 11:24:59;;;;;;;10.52;7.20;;;;;;;;;;5058401;28;21314;-69
2023/11/17 11:27:26;;;;;;;11.65;8.38;;;;;;;;;;5055660;28;20512;-69
2023/11/17 11:29:53;;;;;;;10.00;7.00;;;;;;;;;;5052427;28;20102;-69
2023/11/17 11:32:20;;;;;;;8.98;6.40;;;;;;;;;;5074774;28;20113;-69
2023/11/17 11:34:46;;;;;;;8.50;5.93;;;;;;;;;;5066378;28;20068;-69
2023/11/17 11:37:13;;;;;;;11.20;6.43;;;;;;;;;;5069645;28;20052;-69
2023/11/17 11:39:41;;;;;;;9.50;6.53;;;;;;;;;;5074283;28;20040;-70
2023/11/17 11:42:07;;;;;;;8.98;5.97;;;;;;;;;;5046298;28;20045;-69
2023/11/17 11:44:34;;;;;;;9.05;5.53;;;;;;;;;;5066914;28;20055;-69
2023/11/17 11:47:01;;;;;;;8.57;5.93;;;;;;;;;;5051108;28;20059;-69
2023/11/17 11:49:27;;;;;;;6.85;4.88;;;;;;;;;;5072932;28;20044;-69
2023/11/17 11:51:57;;;;;;;8.82;5.90;;;;;;;;;;5048348;28;20045;-70
2023/11/17 11:54:24;;;;;;;7.22;4.90;;;;;;;;;;5036657;28;20054;-69
2023/11/17 11:56:50;;;;;;;5.13;3.90;;;;;;;;;;5048445;28;20056;-70
2023/11/17 11:59:16;;;;;;;7.10;4.68;;;;;;;;;;5050701;28;20044;-69
2023/11/17 12:01:46;;;;;;;6.40;4.60;;;;;;;;;;5073464;28;20469;-69
2023/11/17 12:04:12;;;;;;;7.30;5.72;;;;;;;;;;5048371;28;20055;-69
2023/11/17 12:06:44;;;;;;;9.00;5.85;;;;;;;;;;5074112;28;20052;-69
2023/11/17 12:09:19;;;;;;;7.60;5.50;;;;;;;;;;5062116;28;20083;-69
2023/11/17 12:11:47;;;;;;;7.60;6.07;;;;;;;;;;5067883;28;20048;-69
2023/11/17 12:14:18;;;;;;;7.45;5.03;;;;;;;;;;5057455;28;20111;-69
2023/11/17 12:16:48;;;;;;;6.47;4.68;;;;;;;;;;5071331;28;20036;-69
2023/11/17 12:19:16;;;;;;;6.00;3.80;;;;;;;;;;5059832;28;20095;-69
2023/11/17 12:21:48;;;;;;;6.07;4.15;;;;;;;;;;5056706;28;20155;-69
2023/11/17 12:24:23;;;;;;;7.10;4.10;;;;;;;;;;5061907;28;20052;-68
2023/11/17 12:26:53;;;;;;;7.32;4.60;;;;;;;;;;5062933;28;20058;-69
2023/11/17 12:29:27;;;;;;;4.60;3.35;;;;;;;;;;5058709;28;20070;-69
2023/11/17 12:31:54;;;;;;;4.75;2.88;;;;;;;;;;5061522;28;20151;-69
2023/11/17 12:34:23;;;;;;;4.47;3.13;;;;;;;;;;5053377;28;20045;-69
2023/11/17 12:36:53;;;;;;;3.72;2.72;;;;;;;;;;5058537;28;20036;-68
2023/11/17 12:39:20;;;;;;;5.32;3.20;;;;;;;;;;5048133;28;20053;-68
2023/11/17 12:41:50;;;;;;;3.92;2.95;;;;;;;;;;5070324;28;20078;-69
2023/11/17 12:44:18;;;;;;;4.18;2.95;;;;;;;;;;5064790;28;20594;-69
2023/11/17 12:46:45;;;;;;;3.92;2.67;;;;;;;;;;5063923;28;20080;-69
2023/11/17 12:49:14;;;;;;;5.97;2.47;;;;;;;;;;5069500;28;20089;-68
2023/11/17 12:51:41;;;;;;;3.95;2.20;;;;;;;;;;5065123;28;20044;-69
2023/11/17 12:54:13;;;;;;;5.25;2.60;;;;;;;;;;5054400;28;20053;-69
2023/11/17 12:56:39;;;;;;;4.10;2.58;;;;;;;;;;5048198;28;20490;-69
2023/11/17 12:59:05;;;;;;;3.67;2.50;;;;;;;;;;5051803;28;20049;-69
2023/11/17 13:01:32;;;;;;;4.32;2.28;;;;;;;;;;5043924;28;20044;-69
2023/11/17 13:03:59;;;;;;;3.47;2.60;;;;;;;;;;5059090;28;20052;-69
2023/11/17 13:06:27;;;;;;;4.25;2.95;;;;;;;;;;5055629;28;20514;-68
2023/11/17 13:08:54;;;;;;;4.30;2.90;;;;;;;;;;5068867;28;20131;-68
2023/11/17 13:11:32;;;;;;;5.82;2.97;;;;;;;;;;5062717;28;20427;-69
2023/11/17 13:14:00;;;;;;;3.97;2.97;;;;;;;;;;5058974;28;20055;-68
2023/11/17 13:16:29;;;;;;;4.05;3.00;;;;;;;;;;5068690;28;20119;-68
2023/11/17 13:18:56;;;;;;;5.55;3.33;;;;;;;;;;5059612;28;20048;-68
2023/11/17 13:21:24;;;;;;;4.03;2.97;;;;;;;;;;5051495;28;20040;-68
2023/11/17 13:23:51;;;;;;;4.65;2.95;;;;;;;;;;5060569;28;20056;-68
2023/11/17 13:26:20;;;;;;;6.43;3.38;;;;;;;;;;5069342;28;20037;-68
2023/11/17 13:28:48;;;;;;;6.10;3.33;;;;;;;;;;5066769;28;20658;-68
2023/11/17 13:31:17;;;;;;;5.47;3.30;;;;;;;;;;5057714;28;20063;-69
2023/11/17 13:33:54;;;;;;;5.57;3.15;;;;;;;;;;5046250;28;20048;-68
2023/11/17 13:36:34;;;;;;;4.13;3.30;;;;;;;;;;5060449;28;20056;-68
2023/11/17 13:41:37;;;;;;;5.20;3.78;;;;;;;;;;5065106;28;20059;-68
2023/11/17 13:44:05;;;;;;;5.15;3.35;;;;;;;;;;5074056;28;20055;-68
2023/11/17 13:46:50;;;;;;;5.38;3.13;;;;;;;;;;5050103;28;20052;-68
2023/11/17 13:49:19;;;;;;;5.63;3.40;;;;;;;;;;5066512;28;20053;-68
2023/11/17 13:51:51;;;;;;;6.75;5.00;;;;;;;;;;5052546;28;20059;-69
2023/11/17 13:54:18;;;;;;;7.78;5.00;;;;;;;;;;5068815;28;20052;-68
2023/11/17 13:56:47;;;;;;;6.22;4.78;;;;;;;;;;5061559;28;20060;-69
2023/11/17 13:59:18;;;;;;;6.65;4.75;;;;;;;;;;5031183;28;20099;-68
2023/11/17 14:01:51;;;;;;;7.22;5.03;;;;;;;;;;5053611;28;20928;-68
2023/11/17 14:04:18;;;;;;;9.57;5.32;;;;;;;;;;5058625;28;20476;-68
2023/11/17 14:06:45;;;;;;;8.40;5.50;;;;;;;;;;5065589;28;20045;-68
2023/11/17 14:09:14;;;;;;;8.50;5.60;;;;;;;;;;5060149;28;20501;-71
2023/11/17 14:11:42;;;;;;;8.15;5.15;;;;;;;;;;5066147;28;20044;-68
2023/11/17 14:14:09;;;;;;;7.18;5.18;;;;;;;;;;5031759;28;20135;-68
2023/11/17 14:16:35;;;;;;;7.88;5.93;;;;;;;;;;5052780;28;20047;-68
2023/11/17 14:19:03;;;;;;;10.52;6.97;;;;;;;;;;5056954;28;20053;-68
2023/11/17 14:21:29;;;;;;;9.50;5.93;;;;;;;;;;5045679;28;20508;-68
2023/11/17 14:23:57;;;;;;;9.38;6.65;;;;;;;;;;5058339;28;20090;-68
2023/11/17 14:26:24;;;;;;;9.65;6.25;;;;;;;;;;5035319;28;20045;-68
2023/11/17 14:28:51;;;;;;;9.43;6.25;;;;;;;;;;5058166;28;20060;-68
2023/11/17 14:31:19;;;;;;;9.00;6.25;;;;;;;;;;5058825;28;20460;-67
2023/11/17 14:33:46;;;;;;;10.85;7.25;;;;;;;;;;5051840;28;20418;-68
2023/11/17 14:36:13;;;;;;;12.75;6.15;;;;;;;;;;5065073;28;20046;-68
2023/11/17 14:38:42;;;;;;;10.25;6.85;;;;;;;;;;5051570;28;20045;-68